createdAt,value
2022-12-24T00:01:23.579Z,97268.03
2022-12-24T00:03:51.971Z,97273.03
2022-12-24T00:06:22.081Z,97275.50
2022-12-24T00:08:51.174Z,97275.75
2022-12-24T00:11:19.466Z,97282.78
2022-12-24T00:13:47.925Z,97282.25
2022-12-24T00:16:16.137Z,97272.22
2022-12-24T00:18:46.998Z,97275.50
2022-12-24T00:21:16.254Z,97265.50
2022-12-24T00:23:44.913Z,97256.75
2022-12-24T00:26:13.455Z,97249.00
2022-12-24T00:28:41.768Z,97253.25
2022-12-24T00:31:12.503Z,97251.25
2022-12-24T00:33:40.954Z,97248.72
2022-12-24T00:36:10.811Z,97246.97
2022-12-24T00:38:38.995Z,97235.69
2022-12-24T00:41:24.465Z,97229.19
2022-12-24T00:43:54.118Z,97240.19
2022-12-24T00:46:22.833Z,97235.19
2022-12-24T00:48:51.138Z,97235.19
2022-12-24T00:51:21.100Z,97236.69
2022-12-24T00:53:49.760Z,97234.16
2022-12-24T00:56:17.843Z,97238.19
2022-12-24T00:58:46.023Z,97242.69
2022-12-24T01:01:14.239Z,97226.94
2022-12-24T01:03:48.633Z,97224.69
2022-12-24T01:06:18.576Z,97218.91
2022-12-24T01:08:51.776Z,97212.38
2022-12-24T01:11:20.009Z,97209.59
2022-12-24T01:13:48.137Z,97210.28
2022-12-24T01:16:18.615Z,97209.00
2022-12-24T01:18:47.188Z,97199.44
2022-12-24T01:21:16.137Z,97200.94
2022-12-24T01:23:44.706Z,97201.47
2022-12-24T01:26:14.205Z,97191.22
2022-12-24T01:28:42.757Z,97192.69
2022-12-24T01:31:15.559Z,97189.94
2022-12-24T01:33:44.260Z,97189.72
2022-12-24T01:36:12.625Z,97186.22
2022-12-24T01:38:41.190Z,97179.69
2022-12-24T01:41:32.427Z,97167.16
2022-12-24T01:44:20.335Z,97181.47
2022-12-24T01:46:50.016Z,97176.97
2022-12-24T01:49:19.238Z,97183.72
2022-12-24T01:51:52.413Z,97177.94
2022-12-24T01:54:25.190Z,97186.22
2022-12-24T01:56:57.174Z,97184.47
2022-12-24T01:59:27.062Z,97187.75
2022-12-24T02:01:55.814Z,97178.47
2022-12-24T02:04:34.068Z,97182.97
2022-12-24T02:07:02.432Z,97187.22
2022-12-24T02:09:31.075Z,97197.22
2022-12-24T02:11:59.397Z,97179.47
2022-12-24T02:14:32.386Z,97187.22
2022-12-24T02:17:11.143Z,97187.72
2022-12-24T02:20:26.540Z,97165.47
2022-12-24T02:23:25.938Z,97167.78
2022-12-24T02:26:18.202Z,97173.78
2022-12-24T02:29:08.315Z,97162.03
2022-12-24T02:31:42.350Z,97164.28
2022-12-24T02:34:16.636Z,97166.31
2022-12-24T02:36:50.675Z,97168.31
2022-12-24T02:39:23.863Z,97159.81
2022-12-24T02:42:07.450Z,97153.78
2022-12-24T02:44:42.438Z,97170.28
2022-12-24T02:47:13.654Z,97162.53
2022-12-24T02:49:46.948Z,97155.25
2022-12-24T02:52:30.092Z,97155.03
2022-12-24T02:55:00.162Z,97160.78
2022-12-24T02:57:42.902Z,97153.25
2022-12-24T03:00:14.459Z,97167.81
2022-12-24T03:02:58.176Z,97169.03
2022-12-24T03:05:34.495Z,97169.25
2022-12-24T03:08:08.480Z,97171.00
2022-12-24T03:10:46.882Z,97167.69
2022-12-24T03:13:17.540Z,97164.47
2022-12-24T03:15:48.075Z,97162.47
2022-12-24T03:18:21.235Z,97158.19
2022-12-24T03:20:53.954Z,97159.13
2022-12-24T03:23:22.291Z,97171.53
2022-12-24T03:25:51.268Z,97172.72
2022-12-24T03:28:21.203Z,97167.50
2022-12-24T03:30:49.889Z,97161.56
2022-12-24T03:33:19.560Z,97176.44
2022-12-24T03:35:48.045Z,97190.41
2022-12-24T03:38:16.184Z,97171.91
2022-12-24T03:40:44.271Z,97177.59
2022-12-24T03:43:12.359Z,97184.44
2022-12-24T03:45:40.637Z,97176.22
2022-12-24T03:48:08.830Z,97176.72
2022-12-24T03:50:38.255Z,97180.72
2022-12-24T03:53:06.336Z,97188.81
2022-12-24T03:55:34.501Z,97187.31
2022-12-24T03:58:02.552Z,97187.31
2022-12-24T04:00:30.740Z,97187.97
2022-12-24T04:02:58.849Z,97191.72
2022-12-24T04:05:27.057Z,97191.53
2022-12-24T04:07:56.563Z,97188.63
2022-12-24T04:10:24.843Z,97191.38
2022-12-24T04:12:52.864Z,97189.06
2022-12-24T04:15:21.148Z,97188.81
2022-12-24T04:17:49.194Z,97176.13
2022-12-24T04:20:17.429Z,97184.94
2022-12-24T04:22:45.491Z,97187.03
2022-12-24T04:25:14.978Z,97178.53
2022-12-24T04:27:43.049Z,97182.81
2022-12-24T04:30:11.776Z,97181.06
2022-12-24T04:32:39.821Z,97187.84
2022-12-24T04:35:08.614Z,97192.91
2022-12-24T04:37:36.713Z,97194.91
2022-12-24T04:40:05.217Z,97193.13
2022-12-24T04:42:34.734Z,97199.44
2022-12-24T04:45:02.804Z,97191.50
2022-12-24T04:47:30.865Z,97195.97
2022-12-24T04:49:59.364Z,97189.19
2022-12-24T04:52:27.487Z,97181.94
2022-12-24T04:54:55.643Z,97185.44
2022-12-24T04:57:23.723Z,97182.91
2022-12-24T04:59:53.339Z,97187.41
2022-12-24T05:02:22.227Z,97186.47
2022-12-24T05:04:50.364Z,97182.84
2022-12-24T05:07:18.609Z,97186.56
2022-12-24T05:09:46.737Z,97178.72
2022-12-24T05:12:14.800Z,97177.13
2022-12-24T05:14:43.126Z,97187.00
2022-12-24T05:17:12.677Z,97185.00
2022-12-24T05:19:40.800Z,97191.34
2022-12-24T05:22:26.328Z,97187.44
2022-12-24T05:25:11.916Z,97197.31
2022-12-24T05:27:40.006Z,97201.75
2022-12-24T05:30:09.599Z,97204.63
2022-12-24T05:32:39.053Z,97207.38
2022-12-24T05:35:07.480Z,97205.03
2022-12-24T05:37:35.612Z,97208.31
2022-12-24T05:40:03.669Z,97199.78
2022-12-24T05:42:31.745Z,97199.75
2022-12-24T05:44:59.814Z,97202.97
2022-12-24T05:47:28.042Z,97202.19
2022-12-24T05:49:57.527Z,97199.09
2022-12-24T05:52:25.815Z,97214.31
2022-12-24T05:54:53.973Z,97216.69
2022-12-24T05:57:22.053Z,97222.81
2022-12-24T05:59:50.125Z,97215.34
2022-12-24T06:02:18.285Z,97220.94
2022-12-24T06:04:46.455Z,97203.31
2022-12-24T06:07:16.059Z,97211.97
2022-12-24T06:09:44.281Z,97216.16
2022-12-24T06:12:12.362Z,97215.69
2022-12-24T06:14:40.449Z,97232.03
2022-12-24T06:17:08.680Z,97222.94
2022-12-24T06:19:36.746Z,97220.47
2022-12-24T06:22:04.809Z,97227.94
2022-12-24T06:24:34.266Z,97235.97
2022-12-24T06:27:02.413Z,97237.00
2022-12-24T06:29:30.473Z,97238.97
2022-12-24T06:31:58.648Z,97230.16
2022-12-24T06:34:26.890Z,97239.06
2022-12-24T06:36:54.971Z,97246.75
2022-12-24T06:39:23.106Z,97244.63
2022-12-24T06:41:52.628Z,97247.72
2022-12-24T06:44:20.736Z,97252.66
2022-12-24T06:46:48.903Z,97247.81
2022-12-24T06:49:17.124Z,97258.31
2022-12-24T06:51:45.231Z,97261.13
2022-12-24T06:54:13.323Z,97261.78
2022-12-24T06:56:41.416Z,97273.00
2022-12-24T06:59:10.857Z,97268.88
2022-12-24T07:01:42.906Z,97279.47
2022-12-24T07:04:20.134Z,97286.09
2022-12-24T07:06:48.906Z,97292.25
2022-12-24T07:09:16.970Z,97292.53
2022-12-24T07:11:45.739Z,97282.47
2022-12-24T07:14:15.254Z,97296.41
2022-12-24T07:16:43.474Z,97297.53
2022-12-24T07:19:12.235Z,97290.53
2022-12-24T07:21:40.230Z,97273.34
2022-12-24T07:24:08.769Z,97289.63
2022-12-24T07:26:36.861Z,97297.63
2022-12-24T07:29:06.111Z,97299.28
2022-12-24T07:31:35.742Z,97293.75
2022-12-24T07:34:03.956Z,97292.94
2022-12-24T07:36:32.125Z,97292.84
2022-12-24T07:39:00.351Z,97299.88
2022-12-24T07:41:28.431Z,97295.13
2022-12-24T07:43:56.767Z,97308.53
2022-12-24T07:46:24.928Z,97307.63
2022-12-24T07:48:54.424Z,97306.19
2022-12-24T07:51:22.516Z,97310.22
2022-12-24T07:53:50.600Z,97305.72
2022-12-24T07:56:18.752Z,97303.94
2022-12-24T07:58:46.911Z,97314.56
2022-12-24T08:01:15.018Z,97302.41
2022-12-24T08:03:43.310Z,97298.28
2022-12-24T08:06:13.281Z,97318.41
2022-12-24T08:08:41.452Z,97319.38
2022-12-24T08:11:09.625Z,97318.16
2022-12-24T08:13:37.667Z,97320.69
2022-12-24T08:16:06.314Z,97328.88
2022-12-24T08:18:35.130Z,97325.97
2022-12-24T08:21:03.196Z,97325.91
2022-12-24T08:23:32.740Z,97335.88
2022-12-24T08:26:00.845Z,97336.25
2022-12-24T08:28:28.996Z,97343.16
2022-12-24T08:30:57.166Z,97342.91
2022-12-24T08:33:25.221Z,97351.22
2022-12-24T08:35:54.924Z,97353.44
2022-12-24T08:38:23.578Z,97352.72
2022-12-24T08:40:54.393Z,97365.50
2022-12-24T08:43:23.004Z,97357.75
2022-12-24T08:45:51.687Z,97358.66
2022-12-24T08:48:20.000Z,97368.09
2022-12-24T08:50:48.359Z,97368.13
2022-12-24T08:53:16.459Z,97365.19
2022-12-24T08:55:46.682Z,97357.19
2022-12-24T08:58:18.485Z,97357.78
2022-12-24T09:00:46.610Z,97359.06
2022-12-24T09:03:18.504Z,97349.13
2022-12-24T09:05:53.605Z,97370.47
2022-12-24T09:08:22.264Z,97365.03
2022-12-24T09:10:50.441Z,97377.63
2022-12-24T09:13:19.913Z,97368.97
2022-12-24T09:15:54.674Z,97377.75
2022-12-24T09:18:22.940Z,97385.06
2022-12-24T09:20:56.831Z,97391.00
2022-12-24T09:23:25.401Z,97384.66
2022-12-24T09:25:53.483Z,97397.00
2022-12-24T09:28:23.476Z,97399.34
2022-12-24T09:30:59.742Z,97392.34
2022-12-24T09:33:28.450Z,97389.56
2022-12-24T09:35:56.588Z,97399.28
2022-12-24T09:38:25.164Z,97406.75
2022-12-24T09:40:55.705Z,97405.00
2022-12-24T09:43:27.484Z,97409.25
2022-12-24T09:46:07.711Z,97405.22
2022-12-24T09:48:40.524Z,97406.25
2022-12-24T09:51:11.033Z,97411.59
2022-12-24T09:53:44.021Z,97418.41
2022-12-24T09:56:17.083Z,97438.03
2022-12-24T09:58:49.708Z,97415.84
2022-12-24T10:01:19.337Z,97414.88
2022-12-24T10:03:47.784Z,97427.75
2022-12-24T10:06:23.623Z,97435.19
2022-12-24T10:09:09.399Z,97450.31
2022-12-24T10:11:44.773Z,97438.09
2022-12-24T10:14:27.514Z,97452.34
2022-12-24T10:17:03.362Z,97444.78
2022-12-24T10:19:46.417Z,97461.88
2022-12-24T10:22:25.341Z,97439.75
2022-12-24T10:25:03.440Z,97464.84
2022-12-24T10:27:36.363Z,97445.84
2022-12-24T10:30:17.518Z,97449.72
2022-12-24T10:32:46.606Z,97451.78
2022-12-24T10:35:23.446Z,97443.75
2022-12-24T10:37:52.884Z,97449.56
2022-12-24T10:40:36.144Z,97448.75
2022-12-24T10:43:15.003Z,97444.16
2022-12-24T10:45:49.850Z,97445.66
2022-12-24T10:48:25.929Z,97459.06
2022-12-24T10:50:59.661Z,97443.59
2022-12-24T10:53:36.627Z,97453.56
2022-12-24T10:56:07.155Z,97453.53
2022-12-24T10:58:35.965Z,97462.25
2022-12-24T11:01:05.846Z,97456.59
2022-12-24T11:03:36.396Z,97459.75
2022-12-24T11:06:10.546Z,97463.75
2022-12-24T11:08:42.856Z,97462.59
2022-12-24T11:11:13.726Z,97467.63
2022-12-24T11:13:45.367Z,97467.00
2022-12-24T11:16:25.447Z,97467.06
2022-12-24T11:18:55.472Z,97472.78
2022-12-24T11:21:27.607Z,97488.84
2022-12-24T11:23:58.187Z,97481.19
2022-12-24T11:26:29.457Z,97498.28
2022-12-24T11:29:07.406Z,97505.47
2022-12-24T11:31:38.417Z,97503.59
2022-12-24T11:34:20.313Z,97520.34
2022-12-24T11:36:48.515Z,97523.94
2022-12-24T11:39:21.650Z,97503.78
2022-12-24T11:41:58.073Z,97526.63
2022-12-24T11:44:28.424Z,97523.13
2022-12-24T11:46:58.205Z,97520.31
2022-12-24T11:49:29.242Z,97532.19
2022-12-24T11:52:19.773Z,97531.38
2022-12-24T11:55:02.816Z,97533.50
2022-12-24T11:57:39.568Z,97536.25
2022-12-24T12:00:11.578Z,97532.41
2022-12-24T12:02:44.277Z,97533.50
2022-12-24T12:05:18.203Z,97530.53
2022-12-24T12:07:51.427Z,97548.72
2022-12-24T12:10:24.328Z,97540.66
2022-12-24T12:13:00.960Z,97553.28
2022-12-24T12:15:35.452Z,97567.50
2022-12-24T12:18:10.935Z,97570.63
2022-12-24T12:20:42.619Z,97563.13
2022-12-24T12:23:17.791Z,97589.75
2022-12-24T12:25:52.073Z,97596.94
2022-12-24T12:28:24.147Z,97604.47
2022-12-24T12:31:02.012Z,97597.56
2022-12-24T12:33:39.007Z,97610.69
2022-12-24T12:36:09.527Z,97612.28
2022-12-24T12:38:37.826Z,97618.06
2022-12-24T12:41:24.954Z,97622.47
2022-12-24T12:44:13.122Z,97631.03
2022-12-24T12:46:53.364Z,97625.91
2022-12-24T12:49:33.392Z,97632.53
2022-12-24T12:52:10.463Z,97626.00
2022-12-24T12:55:03.559Z,97627.06
2022-12-24T12:57:35.846Z,97637.69
2022-12-24T13:00:08.293Z,97654.03
2022-12-24T13:02:52.691Z,97658.00
2022-12-24T13:06:03.191Z,97666.25
2022-12-24T13:08:58.725Z,97675.53
2022-12-24T13:11:55.410Z,97668.72
2022-12-24T13:14:48.566Z,97691.94
2022-12-24T13:17:33.747Z,97697.75
2022-12-24T13:20:25.910Z,97704.41
2022-12-24T13:22:59.766Z,97711.63
2022-12-24T13:25:37.458Z,97700.84
2022-12-24T13:28:33.365Z,97724.75
2022-12-24T13:31:25.384Z,97721.75
2022-12-24T13:33:55.642Z,97724.31
2022-12-24T13:36:24.083Z,97729.91
2022-12-24T13:38:54.655Z,97720.81
2022-12-24T13:41:59.183Z,97730.84
2022-12-24T13:44:33.277Z,97732.09
2022-12-24T13:47:32.327Z,97731.81
2022-12-24T13:50:20.060Z,97744.19
2022-12-24T13:52:53.778Z,97746.06
2022-12-24T13:55:23.885Z,97740.50
2022-12-24T13:57:59.238Z,97742.53
2022-12-24T14:00:42.588Z,97751.69
2022-12-24T14:03:27.649Z,97770.72
2022-12-24T14:06:00.680Z,97762.53
2022-12-24T14:08:34.816Z,97780.94
2022-12-24T14:11:10.712Z,97781.69
2022-12-24T14:14:10.743Z,97787.47
2022-12-24T14:16:52.671Z,97804.22
2022-12-24T14:19:24.019Z,97808.41
2022-12-24T14:21:58.022Z,97811.53
2022-12-24T14:24:29.431Z,97808.66
2022-12-24T14:27:07.282Z,97819.09
2022-12-24T14:29:44.046Z,97814.63
2022-12-24T14:32:16.110Z,97833.00
2022-12-24T14:34:44.703Z,97828.63
2022-12-24T14:37:14.843Z,97824.59
2022-12-24T14:39:47.563Z,97829.94
2022-12-24T14:42:31.764Z,97836.66
2022-12-24T14:45:06.687Z,97844.47
2022-12-24T14:47:42.816Z,97841.94
2022-12-24T14:50:37.613Z,97854.00
2022-12-24T14:53:19.025Z,97847.47
2022-12-24T14:55:48.831Z,97864.03
2022-12-24T14:58:25.945Z,97875.19
2022-12-24T15:00:56.338Z,97872.56
2022-12-24T15:03:26.375Z,97868.22
2022-12-24T15:05:57.881Z,97871.28
2022-12-24T15:08:32.101Z,97860.34
2022-12-24T15:11:04.261Z,97878.97
2022-12-24T15:13:37.583Z,97894.59
2022-12-24T15:16:09.485Z,97883.00
2022-12-24T15:18:46.774Z,97892.91
2022-12-24T15:21:20.084Z,97900.50
2022-12-24T15:23:50.719Z,97892.34
2022-12-24T15:26:27.830Z,97900.09
2022-12-24T15:29:03.311Z,97901.69
2022-12-24T15:31:33.517Z,97908.78
2022-12-24T15:34:01.964Z,97914.53
2022-12-24T15:36:34.358Z,97922.69
2022-12-24T15:39:05.043Z,97920.97
2022-12-24T15:41:59.464Z,97932.22
2022-12-24T15:44:33.258Z,97930.22
2022-12-24T15:47:02.691Z,97929.16
2022-12-24T15:49:33.438Z,97945.97
2022-12-24T15:52:06.904Z,97946.84
2022-12-24T15:54:35.407Z,97944.38
2022-12-24T15:57:14.826Z,97937.56
2022-12-24T15:59:44.492Z,97943.88
2022-12-24T16:02:40.520Z,97941.41
2022-12-24T16:05:32.204Z,97932.41
2022-12-24T16:08:08.561Z,97940.19
2022-12-24T16:10:40.103Z,97944.78
2022-12-24T16:13:17.505Z,97951.72
2022-12-24T16:15:53.695Z,97954.44
2022-12-24T16:18:26.978Z,97952.25
2022-12-24T16:20:57.174Z,97967.88
2022-12-24T16:23:28.189Z,97974.88
2022-12-24T16:25:56.250Z,97976.06
2022-12-24T16:28:24.292Z,97979.22
2022-12-24T16:30:55.705Z,97982.69
2022-12-24T16:33:24.335Z,97979.13
2022-12-24T16:35:52.500Z,97983.47
2022-12-24T16:38:20.537Z,97990.34
2022-12-24T16:40:48.914Z,97998.88
2022-12-24T16:43:34.537Z,97990.22
2022-12-24T16:46:07.214Z,97995.28
2022-12-24T16:48:38.933Z,98006.31
2022-12-24T16:51:07.256Z,98009.22
2022-12-24T16:53:35.408Z,97997.50
2022-12-24T16:56:03.932Z,98012.09
2022-12-24T16:58:33.117Z,98018.00
2022-12-24T17:01:10.149Z,98019.00
2022-12-24T17:03:38.523Z,98015.22
2022-12-24T17:06:09.471Z,98029.72
2022-12-24T17:08:37.699Z,98023.19
2022-12-24T17:11:05.881Z,98036.97
2022-12-24T17:13:34.006Z,98034.56
2022-12-24T17:16:07.412Z,98045.34
2022-12-24T17:18:40.268Z,98050.19
2022-12-24T17:21:10.765Z,98045.22
2022-12-24T17:23:41.647Z,98064.25
2022-12-24T17:26:14.946Z,98050.28
2022-12-24T17:28:44.189Z,98054.00
2022-12-24T17:31:15.015Z,98057.97
2022-12-24T17:33:44.953Z,98059.56
2022-12-24T17:36:13.007Z,98044.00
2022-12-24T17:38:41.089Z,98056.19
2022-12-24T17:41:11.970Z,98043.19
2022-12-24T17:43:40.130Z,98066.75
2022-12-24T17:46:09.216Z,98065.28
2022-12-24T17:48:37.744Z,98066.28
2022-12-24T17:51:09.693Z,98061.25
2022-12-24T17:53:39.183Z,98058.22
2022-12-24T17:56:08.411Z,98064.44
2022-12-24T17:58:36.468Z,98065.56
2022-12-24T18:01:05.179Z,98067.03
2022-12-24T18:03:34.018Z,98075.38
2022-12-24T18:06:04.604Z,98088.69
2022-12-24T18:08:34.098Z,98083.84
2022-12-24T18:11:10.969Z,98095.22
2022-12-24T18:13:39.161Z,98095.78
2022-12-24T18:16:15.780Z,98103.03
2022-12-24T18:18:43.920Z,98116.13
2022-12-24T18:21:12.232Z,98120.75
2022-12-24T18:23:43.411Z,98111.19
2022-12-24T18:26:12.577Z,98109.34
2022-12-24T18:28:41.385Z,98112.53
2022-12-24T18:31:12.642Z,98105.06
2022-12-24T18:33:41.801Z,98118.41
2022-12-24T18:36:10.797Z,98127.63
2022-12-24T18:38:39.295Z,98109.66
2022-12-24T18:41:10.893Z,98125.00
2022-12-24T18:43:39.104Z,98128.41
2022-12-24T18:46:10.581Z,98131.19
2022-12-24T18:48:38.893Z,98118.34
2022-12-24T18:51:07.909Z,98141.53
2022-12-24T18:53:36.326Z,98142.63
2022-12-24T18:56:06.066Z,98147.66
2022-12-24T18:58:37.754Z,98145.78
2022-12-24T19:01:12.238Z,98167.63
2022-12-24T19:03:40.503Z,98156.63
2022-12-24T19:06:09.105Z,98159.38
2022-12-24T19:11:26.182Z,98170.94
2022-12-24T19:13:55.663Z,98179.19
2022-12-24T19:16:24.130Z,98174.78
2022-12-24T19:18:52.255Z,98180.84
2022-12-24T19:21:20.405Z,98192.44
2022-12-24T19:23:49.008Z,98185.75
2022-12-24T19:26:18.980Z,98195.50
2022-12-24T19:28:47.900Z,98194.00
2022-12-24T19:31:21.494Z,98203.56
2022-12-24T19:33:51.699Z,98204.50
2022-12-24T19:36:24.714Z,98214.25
2022-12-24T19:38:52.870Z,98212.72
2022-12-24T19:41:23.457Z,98215.94
2022-12-24T19:43:54.229Z,98221.41
2022-12-24T19:46:26.224Z,98234.03
2022-12-24T19:48:56.600Z,98233.56
2022-12-24T19:51:27.024Z,98237.72
2022-12-24T19:53:55.962Z,98234.22
2022-12-24T19:56:26.140Z,98245.78
2022-12-24T19:58:55.554Z,98243.69
2022-12-24T20:01:26.925Z,98247.66
2022-12-24T20:03:56.186Z,98238.50
2022-12-24T20:06:27.323Z,98242.28
2022-12-24T20:08:59.380Z,98258.00
2022-12-24T20:11:28.012Z,98256.28
2022-12-24T20:13:58.562Z,98265.75
2022-12-24T20:16:29.549Z,98261.16
2022-12-24T20:18:59.597Z,98259.84
2022-12-24T20:21:28.569Z,98257.72
2022-12-24T20:23:57.210Z,98267.31
2022-12-24T20:26:27.696Z,98272.94
2022-12-24T20:28:56.268Z,98260.72
2022-12-24T20:31:26.203Z,98257.72
2022-12-24T20:33:56.634Z,98264.25
2022-12-24T20:36:25.984Z,98265.31
2022-12-24T20:38:54.400Z,98277.50
2022-12-24T20:41:24.258Z,98262.34
2022-12-24T20:43:52.471Z,98266.56
2022-12-24T20:46:22.614Z,98276.72
2022-12-24T20:48:51.039Z,98279.16
2022-12-24T20:51:24.975Z,98281.63
2022-12-24T20:53:54.583Z,98278.59
2022-12-24T20:56:23.224Z,98288.94
2022-12-24T20:58:51.644Z,98289.88
2022-12-24T21:01:24.254Z,98279.16
2022-12-24T21:03:53.705Z,98288.81
2022-12-24T21:06:24.103Z,98291.22
2022-12-24T21:08:52.920Z,98280.13
2022-12-24T21:11:39.561Z,98276.44
2022-12-24T21:14:07.989Z,98270.38
2022-12-24T21:16:37.567Z,98265.78
2022-12-24T21:19:06.632Z,98283.31
2022-12-24T21:21:37.021Z,98282.72
2022-12-24T21:24:06.197Z,98292.63
2022-12-24T21:26:34.934Z,98288.50
2022-12-24T21:29:04.738Z,98285.94
2022-12-24T21:31:33.576Z,98297.63
2022-12-24T21:34:01.728Z,98291.56
2022-12-24T21:36:29.802Z,98297.06
2022-12-24T21:38:59.242Z,98308.97
2022-12-24T21:41:28.122Z,98306.09
2022-12-24T21:43:56.308Z,98304.78
2022-12-24T21:46:25.894Z,98301.09
2022-12-24T21:49:12.858Z,98306.84
2022-12-24T21:51:43.455Z,98307.31
2022-12-24T21:54:23.909Z,98316.56
2022-12-24T21:57:09.927Z,98323.28
2022-12-24T21:59:38.159Z,98322.34
2022-12-24T22:02:06.498Z,98323.69
2022-12-24T22:04:35.198Z,98318.69
2022-12-24T22:07:25.982Z,98329.69
2022-12-24T22:10:13.182Z,98325.88
2022-12-24T22:12:41.187Z,98332.94
2022-12-24T22:15:10.238Z,98334.63
2022-12-24T22:17:38.294Z,98326.13
2022-12-24T22:20:07.825Z,98324.63
2022-12-24T22:22:35.886Z,98342.25
2022-12-24T22:25:05.866Z,98339.88
2022-12-24T22:27:34.004Z,98340.25
2022-12-24T22:30:02.085Z,98353.16
2022-12-24T22:32:30.146Z,98346.59
2022-12-24T22:34:58.273Z,98342.25
2022-12-24T22:37:26.363Z,98340.22
2022-12-24T22:39:54.550Z,98336.63
2022-12-24T22:42:23.979Z,98335.81
2022-12-24T22:44:52.178Z,98332.25
2022-12-24T22:47:20.311Z,98343.47
2022-12-24T22:49:49.309Z,98346.38
2022-12-24T22:52:17.535Z,98352.72
2022-12-24T22:54:45.739Z,98348.41
2022-12-24T22:57:13.818Z,98359.97
2022-12-24T22:59:43.417Z,98353.84
2022-12-24T23:02:12.215Z,98345.25
2022-12-24T23:04:41.867Z,98348.97
2022-12-24T23:07:11.974Z,98348.47
2022-12-24T23:09:40.437Z,98343.47
2022-12-24T23:12:09.142Z,98348.69
2022-12-24T23:14:54.615Z,98343.78
2022-12-24T23:17:24.034Z,98342.69
2022-12-24T23:19:52.095Z,98351.69
2022-12-24T23:22:20.253Z,98358.28
2022-12-24T23:24:48.433Z,98365.00
2022-12-24T23:27:16.535Z,98361.81
2022-12-24T23:29:44.649Z,98376.75
2022-12-24T23:32:12.749Z,98367.78
2022-12-24T23:34:42.281Z,98376.94
2022-12-24T23:37:10.402Z,98375.31
2022-12-24T23:39:38.492Z,98381.38
2022-12-24T23:42:06.723Z,98373.59
2022-12-24T23:44:34.797Z,98386.38
2022-12-24T23:47:02.937Z,98389.78
2022-12-24T23:49:31.072Z,98386.13
2022-12-24T23:52:01.588Z,98389.25
2022-12-24T23:54:30.788Z,98383.63
2022-12-24T23:56:58.904Z,98385.00
2022-12-24T23:59:27.079Z,98382.72
